Time;durP1;ratioP1;P1;durP2;ratioP2;P2;SDS_P1;SDS_P2;PMS_P1;PMS_P2;Temp;Humidity;BMP_temperature;BMP_pressure;BME280_temperature;BME280_humidity;BME280_pressure;Samples;Min_cycle;Max_cycle;Signal;HPM_P1;HPM_P2
2022/10/04 00:01:11;;;;;;;27.83;11.57;;;;;;;-145.01;100.00;64805.59;4945060;28;20030;-54
2022/10/04 00:03:40;;;;;;;23.13;11.63;;;;;;;-145.01;100.00;64805.59;4966379;28;20475;-55
2022/10/04 00:06:06;;;;;;;21.13;11.65;;;;;;;-145.01;100.00;64805.59;4956329;28;20509;-55
2022/10/04 00:08:37;;;;;;;25.80;11.63;;;;;;;-145.01;100.00;64805.59;4936737;28;20043;-54
2022/10/04 00:11:12;;;;;;;30.48;11.95;;;;;;;-145.01;100.00;64805.59;4957059;28;20329;-54
2022/10/04 00:13:37;;;;;;;29.15;13.00;;;;;;;-145.01;100.00;64805.59;4943141;28;20047;-54
2022/10/04 00:16:03;;;;;;;25.73;13.15;;;;;;;-145.01;100.00;64805.59;4956284;28;20039;-55
2022/10/04 00:18:31;;;;;;;28.10;12.10;;;;;;;-145.01;100.00;64805.59;4950545;28;20034;-55
2022/10/04 00:20:58;;;;;;;32.88;12.60;;;;;;;-145.01;100.00;64805.59;4954816;28;20031;-54
2022/10/04 00:23:24;;;;;;;48.33;14.60;;;;;;;-145.01;100.00;64805.59;4961260;28;20085;-55
2022/10/04 00:26:18;;;;;;;29.25;13.32;;;;;;;-145.01;100.00;64805.59;4952980;28;20047;-55
2022/10/04 00:28:44;;;;;;;61.50;14.90;;;;;;;-145.01;100.00;64805.59;4955074;28;20085;-55
2022/10/04 00:31:15;;;;;;;136.95;15.25;;;;;;;-145.01;100.00;64805.59;4955062;28;20031;-56
2022/10/04 00:33:41;;;;;;;43.53;14.35;;;;;;;-145.01;100.00;64805.59;4954270;28;20169;-56
2022/10/04 00:36:24;;;;;;;55.15;14.13;;;;;;;-145.01;100.00;64805.59;4961482;28;20043;-55
2022/10/04 00:39:06;;;;;;;73.93;14.50;;;;;;;-145.01;100.00;64805.59;4954731;28;20117;-55
2022/10/04 00:41:47;;;;;;;50.35;15.10;;;;;;;-145.01;100.00;64805.59;4948651;28;20035;-56
2022/10/04 00:44:17;;;;;;;;;;;;;;;-145.01;100.00;64805.59;4952577;28;20054;-55
2022/10/04 00:46:43;;;;;;;;;;;;;;;-145.01;100.00;64805.59;4953325;28;19922;-55
2022/10/04 00:49:08;;;;;;;26.05;11.25;;;;;;;-145.01;100.00;64805.59;4959227;28;20269;-56
2022/10/04 00:51:38;;;;;;;22.38;10.20;;;;;;;-145.01;100.00;64805.59;4962183;28;20038;-55
2022/10/04 00:54:03;;;;;;;31.45;11.57;;;;;;;-145.01;100.00;64805.59;4959602;28;20138;-55
2022/10/04 00:56:33;;;;;;;18.77;9.50;;;;;;;-145.01;100.00;64805.59;4955552;28;20432;-56
2022/10/04 00:59:19;;;;;;;;;;;;;;;-145.01;100.00;64805.59;4956538;28;20031;-55
2022/10/04 01:01:46;;;;;;;23.40;10.32;;;;;;;-145.01;100.00;64805.59;4961173;28;19922;-55
2022/10/04 01:04:25;;;;;;;17.30;9.48;;;;;;;-145.01;100.00;64805.59;4954721;28;20038;-55
2022/10/04 01:06:50;;;;;;;19.73;9.95;;;;;;;-145.01;100.00;64805.59;4956104;28;20047;-57
2022/10/04 01:09:16;;;;;;;17.60;9.85;;;;;;;-145.01;100.00;64805.59;4965545;28;20396;-55
2022/10/04 01:11:46;;;;;;;24.17;10.05;;;;;;;-145.01;100.00;64805.59;4958679;28;20728;-57
2022/10/04 01:14:28;;;;;;;18.92;9.52;;;;;;;-145.01;100.00;64805.59;4956935;28;20035;-56
2022/10/04 01:16:53;;;;;;;118.20;9.48;;;;;;;-145.01;100.00;64805.59;4939993;28;20172;-57
2022/10/04 01:19:22;;;;;;;93.85;10.50;;;;;;;-145.01;100.00;64805.59;4965538;28;20500;-56
2022/10/04 01:21:58;;;;;;;20.40;8.95;;;;;;;-145.01;100.00;64805.59;4960031;28;20038;-57
2022/10/04 01:24:23;;;;;;;56.05;14.90;;;;;;;-145.01;100.00;64805.59;4963134;28;20527;-58
2022/10/04 01:26:49;;;;;;;65.10;15.77;;;;;;;-145.01;100.00;64805.59;4958094;28;20027;-54
2022/10/04 01:29:25;;;;;;;31.83;15.30;;;;;;;-145.01;100.00;64805.59;4960288;28;20035;-56
2022/10/04 01:31:52;;;;;;;122.88;12.07;;;;;;;-145.01;100.00;64805.59;4951038;28;20078;-55
2022/10/04 01:34:19;;;;;;;76.65;13.18;;;;;;;-145.01;100.00;64805.59;4956162;28;20053;-55
2022/10/04 01:36:45;;;;;;;91.18;12.90;;;;;;;-145.01;100.00;64805.59;4957043;28;20046;-56
2022/10/04 01:39:12;;;;;;;66.82;13.73;;;;;;;-145.01;100.00;64805.59;4957265;28;20497;-54
2022/10/04 01:41:37;;;;;;;63.15;13.48;;;;;;;-145.01;100.00;64805.59;4943888;28;20031;-55
2022/10/04 01:44:03;;;;;;;154.02;15.50;;;;;;;-145.01;100.00;64805.59;4955228;28;20031;-55
2022/10/04 01:46:35;;;;;;;144.38;13.85;;;;;;;-145.01;100.00;64805.59;4953334;28;20035;-54
2022/10/04 01:49:02;;;;;;;118.40;12.75;;;;;;;-145.01;100.00;64805.59;4956285;28;20119;-55
2022/10/04 01:51:37;;;;;;;138.52;13.75;;;;;;;-145.01;100.00;64805.59;4950562;28;20070;-54
2022/10/04 01:54:10;;;;;;;103.13;12.52;;;;;;;-145.01;100.00;64805.59;4945865;28;20039;-53
2022/10/04 01:56:46;;;;;;;231.73;13.35;;;;;;;-145.01;100.00;64805.59;4940189;29;20681;-54
2022/10/04 01:59:15;;;;;;;271.42;12.70;;;;;;;-145.01;100.00;64805.59;4953316;28;20042;-56
2022/10/04 02:01:49;;;;;;;70.38;10.70;;;;;;;-145.01;100.00;64805.59;4953504;28;20031;-55
2022/10/04 02:04:17;;;;;;;154.32;10.57;;;;;;;-145.01;100.00;64805.59;4956624;28;20042;-55
2022/10/04 02:06:43;;;;;;;79.10;10.13;;;;;;;-145.01;100.00;64805.59;4958273;28;20381;-55
2022/10/04 02:09:23;;;;;;;191.23;11.43;;;;;;;-145.01;100.00;64805.59;4940629;28;20126;-55
2022/10/04 02:11:51;;;;;;;305.50;13.80;;;;;;;-145.01;100.00;64805.59;4953981;28;20517;-55
2022/10/04 02:14:20;;;;;;;237.23;12.90;;;;;;;-145.01;100.00;64805.59;4940192;28;20034;-55
2022/10/04 02:16:46;;;;;;;178.55;11.63;;;;;;;-145.01;100.00;64805.59;4945871;28;20437;-54
2022/10/04 02:19:12;;;;;;;179.13;11.85;;;;;;;-145.01;100.00;64805.59;4939162;28;20034;-56
2022/10/04 02:21:37;;;;;;;165.15;10.68;;;;;;;-145.01;100.00;64805.59;4954799;28;20049;-55
2022/10/04 02:24:04;;;;;;;175.88;11.38;;;;;;;-145.01;100.00;64805.59;4954072;28;20031;-55
2022/10/04 02:26:29;;;;;;;247.07;12.57;;;;;;;-145.01;100.00;64805.59;4958099;28;20039;-54
2022/10/04 02:28:55;;;;;;;181.05;10.57;;;;;;;-145.01;100.00;64805.59;4953302;28;20054;-55
2022/10/04 02:34:04;;;;;;;74.38;8.63;;;;;;;-145.01;100.00;64805.59;4946373;28;20038;-55
2022/10/04 02:36:30;;;;;;;210.45;11.35;;;;;;;-145.01;100.00;64805.59;4950142;28;20027;-55
2022/10/04 02:39:01;;;;;;;215.52;10.63;;;;;;;-145.01;100.00;64805.59;4959550;28;20502;-54
2022/10/04 02:41:30;;;;;;;132.00;9.70;;;;;;;-145.01;100.00;64805.59;4959404;28;20042;-55
2022/10/04 02:44:13;;;;;;;98.43;9.00;;;;;;;-145.01;100.00;64805.59;4958685;28;20087;-55
2022/10/04 02:46:48;;;;;;;99.78;9.13;;;;;;;-145.01;100.00;64805.59;4961137;28;20033;-55
2022/10/04 02:49:26;;;;;;;55.88;8.60;;;;;;;-145.01;100.00;64805.59;4962723;28;20512;-55
2022/10/04 02:51:56;;;;;;;28.98;7.25;;;;;;;-145.01;100.00;64805.59;4959242;28;20043;-54
2022/10/04 02:54:29;;;;;;;29.02;8.05;;;;;;;-145.01;100.00;64805.59;4969116;28;20065;-56
2022/10/04 02:56:55;;;;;;;19.10;7.50;;;;;;;-145.01;100.00;64805.59;4956787;28;20035;-54
2022/10/04 02:59:21;;;;;;;20.42;8.20;;;;;;;-145.01;100.00;64805.59;4939149;28;20022;-54
2022/10/04 03:01:54;;;;;;;30.55;7.32;;;;;;;-145.01;100.00;64805.59;4970599;28;20622;-54
2022/10/04 03:04:22;;;;;;;23.63;7.20;;;;;;;-145.01;100.00;64805.59;4963757;28;20055;-55
2022/10/04 03:06:48;;;;;;;33.92;6.63;;;;;;;-145.01;100.00;64805.59;4948866;28;20023;-55
2022/10/04 03:09:13;;;;;;;43.67;6.15;;;;;;;-145.01;100.00;64805.59;4946174;28;20082;-54
2022/10/04 03:11:42;;;;;;;42.30;7.18;;;;;;;-145.01;100.00;64805.59;4956555;28;20023;-55
2022/10/04 03:14:21;;;;;;;27.90;6.20;;;;;;;-145.01;100.00;64805.59;4958322;28;20138;-56
2022/10/04 03:16:48;;;;;;;17.27;6.20;;;;;;;-145.01;100.00;64805.59;4952846;28;20774;-55
2022/10/04 03:19:13;;;;;;;27.83;6.63;;;;;;;-145.01;100.00;64805.59;4958628;28;20047;-54
2022/10/04 03:21:39;;;;;;;44.25;6.43;;;;;;;-145.01;100.00;64805.59;4935125;29;20031;-55
2022/10/04 03:24:05;;;;;;;49.50;7.00;;;;;;;-145.01;100.00;64805.59;4943438;28;20413;-55
2022/10/04 03:26:45;;;;;;;92.68;7.75;;;;;;;-145.01;100.00;64805.59;4951534;28;20462;-55
2022/10/04 03:29:11;;;;;;;53.13;7.25;;;;;;;-145.01;100.00;64805.59;4953045;28;20023;-55
2022/10/04 03:31:39;;;;;;;36.58;7.63;;;;;;;-145.01;100.00;64805.59;4946271;28;20053;-55
2022/10/04 03:34:05;;;;;;;48.88;7.72;;;;;;;-145.01;100.00;64805.59;4947844;28;20624;-55
2022/10/04 03:36:30;;;;;;;72.82;8.05;;;;;;;-145.01;100.00;64805.59;4921187;28;20208;-55
2022/10/04 03:38:56;;;;;;;100.55;9.18;;;;;;;-145.01;100.00;64805.59;4952677;28;20046;-56
2022/10/04 03:41:25;;;;;;;90.82;9.45;;;;;;;-145.01;100.00;64805.59;4955451;28;20389;-56
2022/10/04 03:43:50;;;;;;;62.67;8.95;;;;;;;-145.01;100.00;64805.59;4951978;28;20157;-57
2022/10/04 03:46:16;;;;;;;62.25;9.13;;;;;;;-145.01;100.00;64805.59;4954990;28;20508;-55
2022/10/04 03:48:48;;;;;;;57.10;9.65;;;;;;;-145.01;100.00;64805.59;4944268;28;20034;-55
2022/10/04 03:51:24;;;;;;;78.25;8.95;;;;;;;-145.01;100.00;64805.59;4961264;28;20466;-55
2022/10/04 03:53:54;;;;;;;73.57;9.20;;;;;;;-145.01;100.00;64805.59;4957510;28;20399;-57
2022/10/04 03:56:24;;;;;;;47.90;9.33;;;;;;;-145.01;100.00;64805.59;4946122;28;20064;-56
2022/10/04 03:58:49;;;;;;;;;;;;;;;-145.01;100.00;64805.59;4962508;28;20299;-56
2022/10/04 04:01:33;;;;;;;12.85;7.38;;;;;;;-145.01;100.00;64805.59;4951152;28;19918;-56
2022/10/04 04:04:20;;;;;;;13.77;8.15;;;;;;;-145.01;100.00;64805.59;4958084;28;20456;-57
2022/10/04 04:06:59;;;;;;;12.23;7.78;;;;;;;-145.01;100.00;64805.59;4952890;28;20039;-56
2022/10/04 04:09:34;;;;;;;12.45;7.65;;;;;;;-145.01;100.00;64805.59;4955349;28;20115;-56
2022/10/04 04:11:59;;;;;;;12.73;7.55;;;;;;;-145.01;100.00;64805.59;4960157;28;20488;-57
2022/10/04 04:14:26;;;;;;;10.48;6.82;;;;;;;-145.01;100.00;64805.59;4951050;28;20042;-55
2022/10/04 04:16:52;;;;;;;11.70;7.30;;;;;;;-145.01;100.00;64805.59;4939292;28;20049;-55
2022/10/04 04:19:27;;;;;;;9.80;6.60;;;;;;;-145.01;100.00;64805.59;4949687;28;20029;-54
2022/10/04 04:21:53;;;;;;;12.88;7.00;;;;;;;-145.01;100.00;64805.59;4949731;28;20033;-55
2022/10/04 04:24:26;;;;;;;10.15;6.53;;;;;;;-145.01;100.00;64805.59;4953598;28;20479;-56
2022/10/04 04:26:55;;;;;;;11.68;6.25;;;;;;;-145.01;100.00;64805.59;4952717;28;20031;-57
2022/10/04 04:29:43;;;;;;;10.07;6.07;;;;;;;-145.01;100.00;64805.59;4953461;28;20054;-56
2022/10/04 04:32:17;;;;;;;9.18;5.22;;;;;;;-145.01;100.00;64805.59;4952633;28;20122;-57
2022/10/04 04:34:56;;;;;;;9.18;5.38;;;;;;;-145.01;100.00;64805.59;4949052;28;20047;-57
2022/10/04 04:37:21;;;;;;;7.80;5.07;;;;;;;-145.01;100.00;64805.59;4958424;28;20402;-57
2022/10/04 04:39:53;;;;;;;11.15;5.07;;;;;;;-145.01;100.00;64805.59;4958558;28;20112;-57
2022/10/04 04:42:39;;;;;;;16.63;5.68;;;;;;;-145.01;100.00;64805.59;4961379;28;20063;-57
2022/10/04 04:45:15;;;;;;;9.02;5.80;;;;;;;-145.01;100.00;64805.59;4957113;28;20195;-56
2022/10/04 04:47:45;;;;;;;7.97;4.78;;;;;;;-145.01;100.00;64805.59;4958679;28;20035;-57
2022/10/04 04:50:18;;;;;;;10.40;5.68;;;;;;;-145.01;100.00;64805.59;4955537;28;20031;-57
2022/10/04 04:53:05;;;;;;;12.07;5.65;;;;;;;-145.01;100.00;64805.59;4955250;28;20034;-57
2022/10/04 04:55:33;;;;;;;10.77;5.80;;;;;;;-145.01;100.00;64805.59;4953252;28;20051;-57
2022/10/04 04:57:59;;;;;;;13.07;6.07;;;;;;;-145.01;100.00;64805.59;4962524;28;20081;-57
2022/10/04 05:00:33;;;;;;;10.05;5.80;;;;;;;-145.01;100.00;64805.59;4965468;28;20034;-58
2022/10/04 05:03:03;;;;;;;25.42;5.88;;;;;;;-145.01;100.00;64805.59;4948715;28;20028;-56
2022/10/04 05:05:29;;;;;;;92.30;6.82;;;;;;;-145.01;100.00;64805.59;4945958;28;20031;-57
2022/10/04 05:08:09;;;;;;;21.65;7.63;;;;;;;-145.01;100.00;64805.59;4955424;28;20057;-56
2022/10/04 05:10:35;;;;;;;11.82;6.93;;;;;;;-145.01;100.00;64805.59;4951531;28;20054;-55
2022/10/04 05:13:01;;;;;;;12.55;6.47;;;;;;;-145.01;100.00;64805.59;4940214;28;20375;-55
2022/10/04 05:15:37;;;;;;;12.40;5.43;;;;;;;-145.01;100.00;64805.59;4954648;28;20512;-55
2022/10/04 05:18:16;;;;;;;9.98;5.88;;;;;;;-145.01;100.00;64805.59;4956677;28;20046;-56
2022/10/04 05:20:48;;;;;;;15.45;6.63;;;;;;;-145.01;100.00;64805.59;4951719;28;20038;-56
2022/10/04 05:23:13;;;;;;;19.52;7.72;;;;;;;-145.01;100.00;64805.59;4940482;28;20523;-56
2022/10/04 05:25:38;;;;;;;9.57;6.20;;;;;;;-145.01;100.00;64805.59;4956165;28;20027;-56
2022/10/04 05:28:04;;;;;;;32.42;7.13;;;;;;;-145.01;100.00;64805.59;4956522;28;20027;-56
2022/10/04 05:31:20;;;;;;;105.93;5.47;;;;;;;-145.01;100.00;64805.59;4957467;28;20042;-55
2022/10/04 05:33:50;;;;;;;24.55;4.10;;;;;;;-145.01;100.00;64805.59;4953535;28;20175;-56
2022/10/04 05:36:37;;;;;;;8.47;4.57;;;;;;;-145.01;100.00;64805.59;4958147;28;20121;-57
2022/10/04 05:39:13;;;;;;;7.70;5.15;;;;;;;-145.01;100.00;64805.59;4958868;28;20443;-55
2022/10/04 05:42:00;;;;;;;7.53;4.78;;;;;;;-145.01;100.00;64805.59;4961738;28;20031;-56
2022/10/04 05:44:28;;;;;;;14.30;5.32;;;;;;;-145.01;100.00;64805.59;4952651;28;20039;-56
2022/10/04 05:46:58;;;;;;;10.73;4.80;;;;;;;-145.01;100.00;64805.59;4960917;28;20077;-55
2022/10/04 05:49:25;;;;;;;8.60;4.68;;;;;;;-145.01;100.00;64805.59;4956378;28;20042;-56
2022/10/04 05:52:01;;;;;;;7.28;4.85;;;;;;;-145.01;100.00;64805.59;4964453;28;20031;-56
2022/10/04 05:54:30;;;;;;;18.33;5.95;;;;;;;-145.01;100.00;64805.59;4956871;28;20496;-56
2022/10/04 05:57:23;;;;;;;14.40;5.47;;;;;;;-145.01;100.00;64805.59;4962538;28;20113;-56
2022/10/04 06:00:00;;;;;;;54.10;7.13;;;;;;;-145.01;100.00;64805.59;4956942;28;20118;-55
2022/10/04 06:02:48;;;;;;;46.47;7.35;;;;;;;-145.01;100.00;64805.59;4953375;28;20493;-57
2022/10/04 06:05:28;;;;;;;92.10;9.07;;;;;;;-145.01;100.00;64805.59;4966535;28;20113;-60
2022/10/04 06:08:02;;;;;;;63.13;9.27;;;;;;;-145.01;100.00;64805.59;4964914;28;20110;-57
2022/10/04 06:10:56;;;;;;;114.68;10.52;;;;;;;-145.01;100.00;64805.59;4965794;28;20035;-55
2022/10/04 06:13:50;;;;;;;97.20;10.77;;;;;;;-145.01;100.00;64805.59;4958882;28;20315;-55
2022/10/04 06:16:53;;;;;;;65.13;9.65;;;;;;;-145.01;100.00;64805.59;4958767;28;20034;-56
2022/10/04 06:19:40;;;;;;;59.58;9.43;;;;;;;-145.01;100.00;64805.59;4959027;28;20077;-55
2022/10/04 06:22:19;;;;;;;33.60;8.70;;;;;;;-145.01;100.00;64805.59;4961412;28;20023;-55
2022/10/04 06:24:51;;;;;;;71.50;9.60;;;;;;;-145.01;100.00;64805.59;4960882;28;20520;-56
2022/10/04 06:27:26;;;;;;;62.83;9.68;;;;;;;-145.01;100.00;64805.59;4959853;28;20062;-57
2022/10/04 06:29:58;;;;;;;46.38;8.80;;;;;;;-145.01;100.00;64805.59;4961867;28;20791;-55
2022/10/04 06:32:43;;;;;;;69.85;10.95;;;;;;;-145.01;100.00;64805.59;4951013;28;20157;-57
2022/10/04 06:35:36;;;;;;;42.58;7.63;;;;;;;-145.01;100.00;64805.59;4961934;28;20046;-55
2022/10/04 06:38:27;;;;;;;37.42;9.13;;;;;;;-145.01;100.00;64805.59;4953368;28;20035;-55
2022/10/04 06:41:28;;;;;;;36.67;8.23;;;;;;;-145.01;100.00;64805.59;4949848;28;20086;-56
2022/10/04 06:44:12;;;;;;;;;;;;;;;-145.01;100.00;64805.59;4962874;28;20086;-58
2022/10/04 06:46:51;;;;;;;46.20;9.38;;;;;;;-145.01;100.00;64805.59;4957314;28;19922;-56
2022/10/04 06:49:20;;;;;;;106.97;10.63;;;;;;;-145.01;100.00;64805.59;4960193;28;20031;-56
2022/10/04 06:51:55;;;;;;;94.75;10.57;;;;;;;-145.01;100.00;64805.59;4958879;28;20472;-54
2022/10/04 06:54:42;;;;;;;61.35;11.88;;;;;;;-145.01;100.00;64805.59;4959510;28;20026;-56
2022/10/04 06:57:07;;;;;;;44.97;10.60;;;;;;;-145.01;100.00;64805.59;4958135;28;20042;-55
2022/10/04 07:00:05;;;;;;;56.33;11.18;;;;;;;-145.01;100.00;64805.59;4954984;28;20529;-55
2022/10/04 07:02:41;;;;;;;14.32;8.88;;;;;;;-145.01;100.00;64805.59;4944116;28;20035;-55
2022/10/04 07:05:32;;;;;;;10.75;7.35;;;;;;;-145.01;100.00;64805.59;4962732;28;20046;-56
2022/10/04 07:08:10;;;;;;;13.40;7.72;;;;;;;-145.01;100.00;64805.59;4964753;28;20027;-57
2022/10/04 07:10:47;;;;;;;11.23;7.20;;;;;;;-145.01;100.00;64805.59;4962729;28;20382;-57
2022/10/04 07:13:28;;;;;;;13.25;6.28;;;;;;;-145.01;100.00;64805.59;4955852;28;20058;-56
2022/10/04 07:15:56;;;;;;;;;;;;;;;-145.01;100.00;64805.59;4964950;28;20041;-56
2022/10/04 07:18:24;;;;;;;6.63;4.00;;;;;;;-145.01;100.00;64805.59;4963582;28;19969;-56
2022/10/04 07:20:58;;;;;;;5.05;3.28;;;;;;;-145.01;100.00;64805.59;4946695;28;20113;-56
2022/10/04 07:23:30;;;;;;;6.55;3.45;;;;;;;-145.01;100.00;64805.59;4933875;28;20030;-57
2022/10/04 07:25:58;;;;;;;9.73;3.95;;;;;;;-145.01;100.00;64805.59;4959879;28;20074;-58
2022/10/04 07:31:26;;;;;;;7.00;3.80;;;;;;;-145.01;100.00;64805.59;4957834;28;20052;-57
2022/10/04 07:34:25;;;;;;;6.50;3.45;;;;;;;-145.01;100.00;64805.59;4936602;28;20057;-57
2022/10/04 07:36:55;;;;;;;5.05;3.13;;;;;;;-145.01;100.00;64805.59;4932068;28;20113;-57
2022/10/04 07:39:30;;;;;;;5.45;3.40;;;;;;;-145.01;100.00;64805.59;4950302;28;20051;-54
2022/10/04 07:42:04;;;;;;;6.60;2.83;;;;;;;-145.01;100.00;64805.59;4945158;28;20473;-58
2022/10/04 07:44:38;;;;;;;5.13;3.00;;;;;;;-145.01;100.00;64805.59;4950934;28;20038;-58
2022/10/04 07:47:25;;;;;;;4.60;3.33;;;;;;;-145.01;100.00;64805.59;4967109;28;20393;-55
2022/10/04 07:49:52;;;;;;;5.45;3.33;;;;;;;-145.01;100.00;64805.59;4957656;28;20377;-54
2022/10/04 07:52:39;;;;;;;4.85;3.33;;;;;;;-145.01;100.00;64805.59;4960413;28;20034;-54
2022/10/04 07:55:25;;;;;;;10.27;5.93;;;;;;;-145.01;100.00;64805.59;4957250;28;20042;-55
2022/10/04 07:58:22;;;;;;;9.30;5.70;;;;;;;-145.01;100.00;64805.59;4955149;28;20094;-55
2022/10/04 08:00:57;;;;;;;9.77;4.72;;;;;;;-145.01;100.00;64805.59;4963115;28;20035;-58
2022/10/04 08:03:48;;;;;;;6.60;3.67;;;;;;;-145.01;100.00;64805.59;4954086;28;20042;-58
2022/10/04 08:06:22;;;;;;;5.95;3.92;;;;;;;-145.01;100.00;64805.59;4958691;28;20085;-56
2022/10/04 08:09:01;;;;;;;4.28;3.17;;;;;;;-145.01;100.00;64805.59;4962002;28;20023;-56
2022/10/04 08:11:30;;;;;;;5.50;3.72;;;;;;;-145.01;100.00;64805.59;4953899;28;20069;-56
2022/10/04 08:13:59;;;;;;;8.30;3.30;;;;;;;-145.01;100.00;64805.59;4956153;28;20060;-55
2022/10/04 08:16:25;;;;;;;6.90;4.38;;;;;;;-145.01;100.00;64805.59;4963390;28;20034;-55
2022/10/04 08:19:09;;;;;;;9.27;4.85;;;;;;;-145.01;100.00;64805.59;4953090;28;20031;-54
2022/10/04 08:21:43;;;;;;;5.15;4.00;;;;;;;-145.01;100.00;64805.59;4959182;28;20036;-55
2022/10/04 08:24:32;;;;;;;8.02;4.40;;;;;;;-145.01;100.00;64805.59;4973115;28;20132;-56
2022/10/04 08:27:07;;;;;;;5.70;3.80;;;;;;;-145.01;100.00;64805.59;4947019;28;20070;-55
2022/10/04 08:30:09;;;;;;;7.82;4.47;;;;;;;-145.01;100.00;64805.59;4964803;28;20448;-54
2022/10/04 08:32:47;;;;;;;8.63;3.95;;;;;;;-145.01;100.00;64805.59;4958080;28;20117;-55
2022/10/04 08:35:28;;;;;;;6.15;3.50;;;;;;;-145.01;100.00;64805.59;4961374;28;20427;-55
2022/10/04 08:38:05;;;;;;;4.50;3.10;;;;;;;-145.01;100.00;64805.59;4956307;28;20049;-55
2022/10/04 08:40:49;;;;;;;5.15;3.30;;;;;;;-145.01;100.00;64805.59;4954324;28;20055;-53
2022/10/04 08:43:26;;;;;;;6.43;3.70;;;;;;;-145.01;100.00;64805.59;4952890;28;20039;-55
2022/10/04 08:46:14;;;;;;;5.53;3.80;;;;;;;-145.01;100.00;64805.59;4956435;28;20075;-54
2022/10/04 08:49:11;;;;;;;9.52;5.13;;;;;;;-145.01;100.00;64805.59;4954838;28;20023;-55
2022/10/04 08:52:04;;;;;;;8.10;4.80;;;;;;;-145.01;100.00;64805.59;4954163;28;20038;-54
2022/10/04 08:54:55;;;;;;;10.63;4.20;;;;;;;-145.01;100.00;64805.59;4960574;28;20109;-56
2022/10/04 08:57:30;;;;;;;8.80;4.63;;;;;;;-145.01;100.00;64805.59;4956873;28;20035;-54
2022/10/04 09:00:05;;;;;;;7.55;4.43;;;;;;;-145.01;100.00;64805.59;4952606;28;20027;-56
2022/10/04 09:03:01;;;;;;;11.73;4.57;;;;;;;-145.01;100.00;64805.59;4961053;28;20066;-55
2022/10/04 09:05:39;;;;;;;11.48;4.93;;;;;;;-145.01;100.00;64805.59;4960170;28;20038;-55
2022/10/04 09:08:35;;;;;;;7.68;4.05;;;;;;;-145.01;100.00;64805.59;4963784;28;20074;-55
2022/10/04 09:11:15;;;;;;;10.93;4.75;;;;;;;-145.01;100.00;64805.59;4954416;28;20295;-56
2022/10/04 09:13:59;;;;;;;9.23;4.55;;;;;;;-145.01;100.00;64805.59;4962260;28;20034;-56
2022/10/04 09:16:46;;;;;;;10.43;4.90;;;;;;;-145.01;100.00;64805.59;4953152;28;20031;-56
2022/10/04 09:19:36;;;;;;;10.70;4.82;;;;;;;-145.01;100.00;64805.59;4943039;28;20033;-55
2022/10/04 09:22:13;;;;;;;10.10;5.03;;;;;;;-145.01;100.00;64805.59;4959477;28;20067;-55
2022/10/04 09:25:22;;;;;;;7.35;4.40;;;;;;;-145.01;100.00;64805.59;4961092;28;20031;-55
2022/10/04 09:28:17;;;;;;;10.68;5.32;;;;;;;-145.01;100.00;64805.59;4959044;28;20115;-56
2022/10/04 09:30:57;;;;;;;17.67;5.50;;;;;;;-145.01;100.00;64805.59;4952451;28;20043;-55
2022/10/04 09:33:30;;;;;;;12.90;5.60;;;;;;;-145.01;100.00;64805.59;4960112;28;20437;-57
2022/10/04 09:36:13;;;;;;;10.15;5.50;;;;;;;-145.01;100.00;64805.59;4941498;28;20031;-58
2022/10/04 09:39:06;;;;;;;13.77;5.50;;;;;;;-145.01;100.00;64805.59;4945222;28;20069;-58
2022/10/04 09:42:08;;;;;;;12.80;5.45;;;;;;;-145.01;100.00;64805.59;4961510;28;20134;-54
2022/10/04 09:44:54;;;;;;;10.88;5.65;;;;;;;-145.01;100.00;64805.59;4961110;28;20121;-56
2022/10/04 09:47:45;;;;;;;14.48;5.85;;;;;;;-145.01;100.00;64805.59;4961865;28;20042;-53
2022/10/04 09:50:30;;;;;;;13.32;6.40;;;;;;;-145.01;100.00;64805.59;4963703;28;20097;-55
2022/10/04 09:53:27;;;;;;;15.45;6.97;;;;;;;-145.01;100.00;64805.59;4962521;28;20034;-55
2022/10/04 09:55:57;;;;;;;16.27;6.78;;;;;;;-145.01;100.00;64805.59;4963040;28;20302;-57
2022/10/04 09:58:45;;;;;;;21.73;6.75;;;;;;;-145.01;100.00;64805.59;4982788;28;20039;-55
2022/10/04 10:01:29;;;;;;;16.15;7.10;;;;;;;-145.01;100.00;64805.59;4958255;28;20034;-56
2022/10/04 10:04:18;;;;;;;14.90;7.80;;;;;;;-145.01;100.00;64805.59;4960532;28;20500;-56
2022/10/04 10:07:12;;;;;;;20.50;9.55;;;;;;;-145.01;100.00;64805.59;4965032;28;20038;-55
2022/10/04 10:13:39;;;;;;;21.35;9.65;;;;;;;-145.01;100.00;64805.59;4952492;28;20119;-55
2022/10/04 10:16:24;;;;;;;14.10;9.40;;;;;;;-145.01;100.00;64805.59;4971263;28;20058;-56
2022/10/04 10:18:52;;;;;;;17.70;9.80;;;;;;;-145.01;100.00;64805.59;4958189;28;20038;-54
2022/10/04 10:21:18;;;;;;;18.40;9.25;;;;;;;-145.01;100.00;64805.59;4955975;28;20086;-56
2022/10/04 10:24:09;;;;;;;19.75;9.98;;;;;;;-145.01;100.00;64805.59;4959056;28;20027;-56
2022/10/04 10:26:48;;;;;;;17.30;8.68;;;;;;;-145.01;100.00;64805.59;4957314;28;20473;-56
2022/10/04 10:29:35;;;;;;;22.40;9.32;;;;;;;-145.01;100.00;64805.59;4957954;28;20117;-55
2022/10/04 10:32:19;;;;;;;21.13;9.32;;;;;;;-145.01;100.00;64805.59;4961932;28;20073;-56
2022/10/04 10:34:52;;;;;;;19.02;9.27;;;;;;;-145.01;100.00;64805.59;4959994;28;20066;-56
2022/10/04 10:37:33;;;;;;;9.60;5.72;;;;;;;-145.01;100.00;64805.59;4960911;28;20065;-57
2022/10/04 10:40:07;;;;;;;16.73;8.23;;;;;;;-145.01;100.00;64805.59;4962528;28;20098;-55
2022/10/04 10:42:42;;;;;;;19.67;8.50;;;;;;;-145.01;100.00;64805.59;4957228;28;20512;-55
2022/10/04 10:45:45;;;;;;;10.13;5.15;;;;;;;-145.01;100.00;64805.59;4956517;28;20066;-55
2022/10/04 10:48:28;;;;;;;9.32;4.32;;;;;;;-145.01;100.00;64805.59;4963499;28;20042;-53
2022/10/04 10:51:17;;;;;;;9.07;4.30;;;;;;;-145.01;100.00;64805.59;4958858;28;20449;-56
2022/10/04 10:53:46;;;;;;;7.63;4.03;;;;;;;-145.01;100.00;64805.59;4957392;28;20062;-58
2022/10/04 10:56:31;;;;;;;11.48;4.47;;;;;;;-145.01;100.00;64805.59;4957004;28;20043;-55
2022/10/04 10:59:27;;;;;;;10.88;4.53;;;;;;;-145.01;100.00;64805.59;4955745;28;20031;-56
2022/10/04 11:02:14;;;;;;;11.43;5.25;;;;;;;-145.01;100.00;64805.59;4954979;28;20033;-55
2022/10/04 11:05:03;;;;;;;9.50;4.95;;;;;;;-145.01;100.00;64805.59;4964777;28;20059;-57
2022/10/04 11:08:28;;;;;;;8.57;4.80;;;;;;;-145.01;100.00;64805.59;4959041;28;20082;-57
2022/10/04 11:11:00;;;;;;;9.85;5.25;;;;;;;-145.01;100.00;64805.59;4950348;28;20660;-57
2022/10/04 11:13:28;;;;;;;10.13;5.00;;;;;;;-145.01;100.00;64805.59;4956557;28;20523;-56
2022/10/04 11:16:28;;;;;;;10.20;4.68;;;;;;;-145.01;100.00;64805.59;4954684;28;20255;-55
2022/10/04 11:19:05;;;;;;;13.15;5.13;;;;;;;-145.01;100.00;64805.59;4961935;28;20112;-57
2022/10/04 11:21:45;;;;;;;11.00;4.30;;;;;;;-145.01;100.00;64805.59;4965238;28;20466;-56
2022/10/04 11:24:29;;;;;;;8.05;4.90;;;;;;;-145.01;100.00;64805.59;4956056;28;20073;-55
2022/10/04 11:26:55;;;;;;;8.32;4.43;;;;;;;-145.01;100.00;64805.59;4958545;28;20671;-54
2022/10/04 11:29:32;;;;;;;10.77;4.53;;;;;;;-145.01;100.00;64805.59;4954368;28;20070;-55
2022/10/04 11:32:00;;;;;;;10.68;4.72;;;;;;;-145.01;100.00;64805.59;4963737;28;20074;-55
2022/10/04 11:35:04;;;;;;;9.23;4.57;;;;;;;-145.01;100.00;64805.59;4957263;28;20473;-55
2022/10/04 11:37:47;;;;;;;11.70;4.30;;;;;;;-145.01;100.00;64805.59;4954875;28;20382;-55
2022/10/04 11:40:32;;;;;;;8.52;4.18;;;;;;;-145.01;100.00;64805.59;4978870;28;20420;-58
2022/10/04 11:43:19;;;;;;;11.30;4.40;;;;;;;-145.01;100.00;64805.59;4963250;28;20041;-58
2022/10/04 11:46:19;;;;;;;9.02;4.10;;;;;;;-145.01;100.00;64805.59;4961505;28;20508;-56
2022/10/04 11:49:00;;;;;;;12.82;4.93;;;;;;;-145.01;100.00;64805.59;4953153;28;20039;-54
2022/10/04 11:51:50;;;;;;;6.28;4.07;;;;;;;-145.01;100.00;64805.59;4961061;28;20089;-58
2022/10/04 11:54:23;;;;;;;10.70;4.30;;;;;;;-145.01;100.00;64805.59;4962116;28;20382;-56